createdAt,value
2019-04-26T00:00:32.662Z,1004.45
2019-04-26T00:01:13.843Z,1004.44
2019-04-26T00:01:53.797Z,1004.45
2019-04-26T00:02:34.384Z,1004.45
2019-04-26T00:03:15.034Z,1004.44
2019-04-26T00:03:55.610Z,1004.46
2019-04-26T00:04:36.178Z,1004.42
2019-04-26T00:05:16.768Z,1004.44
2019-04-26T00:05:57.331Z,1004.43
2019-04-26T00:06:37.898Z,1004.43
2019-04-26T00:07:18.767Z,1004.43
2019-04-26T00:07:59.031Z,1004.41
2019-04-26T00:08:39.604Z,1004.39
2019-04-26T00:09:20.164Z,1004.38
2019-04-26T00:10:00.742Z,1004.43
2019-04-26T00:10:41.325Z,1004.43
2019-04-26T00:11:22.385Z,1004.44
2019-04-26T00:12:02.443Z,1004.43
2019-04-26T00:12:43.003Z,1004.46
2019-04-26T00:13:23.574Z,1004.41
2019-04-26T00:14:04.184Z,1004.41
2019-04-26T00:14:44.748Z,1004.41
2019-04-26T00:15:25.348Z,1004.46
2019-04-26T00:16:05.932Z,1004.37
2019-04-26T00:16:46.533Z,1004.39
2019-04-26T00:17:27.080Z,1004.39
2019-04-26T00:18:07.656Z,1004.32
2019-04-26T00:18:48.233Z,1004.33
2019-04-26T00:19:28.780Z,1004.32
2019-04-26T00:20:09.330Z,1004.32
2019-04-26T00:20:49.891Z,1004.34
2019-04-26T00:21:30.525Z,1004.31
2019-04-26T00:22:12.013Z,1004.35
2019-04-26T00:22:51.673Z,1004.32
2019-04-26T00:23:32.229Z,1004.32
2019-04-26T00:24:13.087Z,1004.35
2019-04-26T00:24:53.416Z,1004.31
2019-04-26T00:25:40.623Z,1004.29
2019-04-26T00:26:21.800Z,1004.33
2019-04-26T00:27:01.782Z,1004.35
2019-04-26T00:27:42.341Z,1004.35
2019-04-26T00:28:22.930Z,1004.34
2019-04-26T00:29:03.506Z,1004.35
2019-04-26T00:29:44.065Z,1004.32
2019-04-26T00:30:24.648Z,1004.3
2019-04-26T00:31:05.237Z,1004.3
2019-04-26T00:31:45.825Z,1004.28
2019-04-26T00:32:26.414Z,1004.29
2019-04-26T00:33:07.003Z,1004.26
2019-04-26T00:33:47.902Z,1004.24
2019-04-26T00:34:28.467Z,1004.23
2019-04-26T00:35:09.076Z,1004.18
2019-04-26T00:35:49.698Z,1004.17
2019-04-26T00:36:30.282Z,1004.23
2019-04-26T00:37:11.566Z,1004.16
2019-04-26T00:37:51.443Z,1004.16
2019-04-26T00:38:32.030Z,1004.13
2019-04-26T00:39:13.213Z,1004.13
2019-04-26T00:39:53.178Z,1004.12
2019-04-26T00:40:33.764Z,1004.13
2019-04-26T00:41:14.342Z,1004.11
2019-04-26T00:41:54.892Z,1004.12
2019-04-26T00:42:35.478Z,1004.08
2019-04-26T00:43:16.360Z,1004.12
2019-04-26T00:43:56.616Z,1004.11
2019-04-26T00:44:37.183Z,1004.07
2019-04-26T00:45:18.680Z,1004.05
2019-04-26T00:45:58.333Z,1004.06
2019-04-26T00:46:38.887Z,1004.08
2019-04-26T00:47:19.471Z,1004.06
2019-04-26T00:48:00.048Z,1004.03
2019-04-26T00:48:40.659Z,1004.01
2019-04-26T00:49:21.304Z,1004.01
2019-04-26T00:50:01.796Z,1004
2019-04-26T00:50:42.359Z,1003.98
2019-04-26T00:51:23.439Z,1003.99
2019-04-26T00:52:03.483Z,1003.98
2019-04-26T00:52:44.061Z,1003.97
2019-04-26T00:53:24.607Z,1003.92
2019-04-26T00:54:05.182Z,1003.93
2019-04-26T00:54:45.767Z,1003.93
2019-04-26T00:55:26.316Z,1003.91
2019-04-26T00:56:06.868Z,1003.9
2019-04-26T00:56:47.433Z,1003.92
2019-04-26T00:57:27.991Z,1003.91
2019-04-26T00:58:08.556Z,1003.91
2019-04-26T00:58:49.120Z,1003.9
2019-04-26T00:59:29.686Z,1003.87
2019-04-26T01:00:10.253Z,1003.88
2019-04-26T01:00:50.812Z,1003.86
2019-04-26T01:01:31.374Z,1003.9
2019-04-26T01:02:11.939Z,1003.86
2019-04-26T01:02:52.492Z,1003.88
2019-04-26T01:03:33.047Z,1003.85
2019-04-26T01:04:14.384Z,1003.86
2019-04-26T01:04:54.176Z,1003.86
2019-04-26T01:05:34.730Z,1003.87
2019-04-26T01:06:15.933Z,1003.83
2019-04-26T01:06:55.853Z,1003.82
2019-04-26T01:07:36.436Z,1003.85
2019-04-26T01:08:17.073Z,1003.83
2019-04-26T01:11:16.581Z,1003.76
2019-04-26T01:11:56.430Z,1003.77
2019-04-26T01:12:36.992Z,1003.75
2019-04-26T01:13:17.826Z,1003.76
2019-04-26T01:13:58.093Z,1003.78
2019-04-26T01:14:38.665Z,1003.75
2019-04-26T01:15:20.362Z,1003.74
2019-04-26T01:15:59.799Z,1003.72
2019-04-26T01:16:40.365Z,1003.72
2019-04-26T01:17:20.936Z,1003.71
2019-04-26T01:18:01.480Z,1003.72
2019-04-26T01:18:42.040Z,1003.76
2019-04-26T01:19:22.592Z,1003.7
2019-04-26T01:20:03.138Z,1003.7
2019-04-26T01:20:43.709Z,1003.65
2019-04-26T01:21:24.721Z,1003.66
2019-04-26T01:22:04.819Z,1003.63
2019-04-26T01:22:45.386Z,1003.66
2019-04-26T01:23:25.937Z,1003.6
2019-04-26T01:24:06.492Z,1003.61
2019-04-26T01:24:47.057Z,1003.64
2019-04-26T01:28:00.985Z,1003.62
2019-04-26T01:28:41.533Z,1003.63
2019-04-26T01:29:22.109Z,1003.6
2019-04-26T01:30:02.674Z,1003.64
2019-04-26T01:30:43.229Z,1003.56
2019-04-26T01:31:23.945Z,1003.55
2019-04-26T01:32:04.416Z,1003.56
2019-04-26T01:32:44.969Z,1003.55
2019-04-26T01:33:26.200Z,1003.53
2019-04-26T01:34:06.656Z,1003.51
2019-04-26T01:34:47.225Z,1003.49
2019-04-26T01:35:28.380Z,1003.53
2019-04-26T01:36:13.019Z,1003.47
2019-04-26T01:36:48.895Z,1003.46
2019-04-26T01:37:29.459Z,1003.47
2019-04-26T01:38:10.030Z,1003.51
2019-04-26T01:38:50.609Z,1003.48
2019-04-26T01:39:32.020Z,1003.46
2019-04-26T01:40:11.732Z,1003.47
2019-04-26T01:40:52.291Z,1003.45
2019-04-26T01:41:32.857Z,1003.43
2019-04-26T01:42:13.506Z,1003.47
2019-04-26T01:42:54.065Z,1003.43
2019-04-26T01:43:34.630Z,1003.46
2019-04-26T01:44:15.200Z,1003.44
2019-04-26T01:44:55.759Z,1003.42
2019-04-26T01:45:36.345Z,1003.53
2019-04-26T01:46:16.925Z,1003.43
2019-04-26T01:46:57.475Z,1003.46
2019-04-26T01:47:38.033Z,1003.41
2019-04-26T01:48:18.596Z,1003.39
2019-04-26T01:48:59.171Z,1003.4
2019-04-26T01:49:39.731Z,1003.35
2019-04-26T01:50:20.966Z,1003.42
2019-04-26T01:51:00.886Z,1003.41
2019-04-26T01:51:41.431Z,1003.36
2019-04-26T01:52:22.818Z,1003.38
2019-04-26T01:53:02.551Z,1003.34
2019-04-26T01:53:43.120Z,1003.34
2019-04-26T01:54:24.137Z,1003.37
2019-04-26T01:55:04.233Z,1003.36
2019-04-26T01:58:18.163Z,1003.36
2019-04-26T01:58:58.710Z,1003.39
2019-04-26T01:59:39.282Z,1003.36
2019-04-26T02:00:19.835Z,1003.35
2019-04-26T02:01:00.397Z,1003.35
2019-04-26T02:01:40.960Z,1003.32
2019-04-26T02:02:22.350Z,1003.33
2019-04-26T02:03:02.148Z,1003.34
2019-04-26T02:03:42.704Z,1003.33
2019-04-26T02:04:23.944Z,1003.34
2019-04-26T02:05:03.862Z,1003.35
2019-04-26T02:05:44.418Z,1003.33
2019-04-26T02:06:30.617Z,1003.32
2019-04-26T02:07:05.583Z,1003.32
2019-04-26T02:07:46.140Z,1003.28
2019-04-26T02:08:26.718Z,1003.28
2019-04-26T02:09:07.282Z,1003.33
2019-04-26T02:09:47.845Z,1003.34
2019-04-26T02:10:28.726Z,1003.3
2019-04-26T02:11:08.976Z,1003.28
2019-04-26T02:11:49.544Z,1003.3
2019-04-26T02:12:30.859Z,1003.27
2019-04-26T02:13:10.689Z,1003.24
2019-04-26T02:13:51.252Z,1003.25
2019-04-26T02:14:31.809Z,1003.25
2019-04-26T02:15:12.377Z,1003.23
2019-04-26T02:15:52.933Z,1003.29
2019-04-26T02:16:33.526Z,1003.23
2019-04-26T02:17:14.060Z,1003.19
2019-04-26T02:17:54.637Z,1003.2
2019-04-26T02:18:35.237Z,1003.19
2019-04-26T02:19:15.809Z,1003.17
2019-04-26T02:19:56.367Z,1003.14
2019-04-26T02:20:36.949Z,1003.17
2019-04-26T02:21:17.502Z,1003.15
2019-04-26T02:21:58.057Z,1003.13
2019-04-26T02:22:38.615Z,1003.14
2019-04-26T02:23:19.166Z,1003.16
2019-04-26T02:23:59.743Z,1003.12
2019-04-26T02:24:40.306Z,1003.11
2019-04-26T02:25:20.878Z,1003.07
2019-04-26T02:26:01.429Z,1003.07
2019-04-26T02:26:41.974Z,1003.07
2019-04-26T02:27:22.530Z,1003.06
2019-04-26T02:28:03.114Z,1002.99
2019-04-26T02:28:43.678Z,1003.03
2019-04-26T02:29:25.176Z,1002.97
2019-04-26T02:30:04.832Z,1002.99
2019-04-26T02:30:45.469Z,1002.99
2019-04-26T02:31:27.170Z,1003.04
2019-04-26T02:32:06.584Z,1002.99
2019-04-26T02:32:47.148Z,1002.98
2019-04-26T02:33:29.601Z,1003
2019-04-26T02:34:08.738Z,1003.01
2019-04-26T02:34:49.293Z,1002.96
2019-04-26T02:35:30.673Z,1002.98
2019-04-26T02:36:10.410Z,1002.94
2019-04-26T02:36:57.525Z,1002.95
2019-04-26T02:37:32.664Z,1002.95
2019-04-26T02:38:12.085Z,1002.95
2019-04-26T02:38:52.657Z,1002.93
2019-04-26T02:39:34.098Z,1002.94
2019-04-26T02:40:13.810Z,1002.94
2019-04-26T02:40:54.384Z,1002.92
2019-04-26T02:41:35.641Z,1002.92
2019-04-26T02:42:15.529Z,1002.91
2019-04-26T02:42:56.090Z,1002.9
2019-04-26T02:43:37.243Z,1002.9
2019-04-26T02:44:17.213Z,1002.91
2019-04-26T02:44:57.776Z,1002.93
2019-04-26T02:45:38.357Z,1002.91
2019-04-26T02:46:18.945Z,1002.9
2019-04-26T02:46:59.507Z,1002.89
2019-04-26T02:47:40.055Z,1002.86
2019-04-26T02:48:20.614Z,1002.88
2019-04-26T02:49:01.161Z,1002.88
2019-04-26T02:49:41.728Z,1002.92
2019-04-26T02:50:22.309Z,1002.88
2019-04-26T02:51:02.894Z,1002.91
2019-04-26T02:51:43.466Z,1002.89
2019-04-26T02:52:24.017Z,1002.88
2019-04-26T02:53:04.591Z,1002.89
2019-04-26T02:53:45.171Z,1002.87
2019-04-26T02:54:25.722Z,1002.88
2019-04-26T02:55:06.313Z,1002.92
2019-04-26T02:55:46.872Z,1002.91
2019-04-26T02:56:28.109Z,1002.94
2019-04-26T02:57:07.999Z,1002.95
2019-04-26T02:57:48.565Z,1002.94
2019-04-26T02:58:29.976Z,1002.93
2019-04-26T02:59:09.764Z,1002.94
2019-04-26T02:59:50.255Z,1002.92
2019-04-26T03:00:32.085Z,1002.95
2019-04-26T03:01:11.383Z,1002.92
2019-04-26T03:01:51.943Z,1002.94
2019-04-26T03:02:34.511Z,1002.9
2019-04-26T03:03:13.077Z,1002.91
2019-04-26T03:03:53.827Z,1002.88
2019-04-26T03:04:35.633Z,1002.9
2019-04-26T03:05:14.764Z,1002.88
2019-04-26T03:05:55.325Z,1002.89
2019-04-26T03:06:37.190Z,1002.88
2019-04-26T03:07:16.462Z,1002.85
2019-04-26T03:07:57.023Z,1002.91
2019-04-26T03:08:39.294Z,1002.86
2019-04-26T03:09:18.128Z,1002.87
2019-04-26T03:09:58.712Z,1002.83
2019-04-26T03:10:40.319Z,1002.82
2019-04-26T03:11:19.826Z,1002.81
2019-04-26T03:12:00.396Z,1002.83
2019-04-26T03:12:40.953Z,1002.82
2019-04-26T03:13:21.515Z,1002.83
2019-04-26T03:14:02.086Z,1002.79
2019-04-26T03:14:42.637Z,1002.76
2019-04-26T03:15:23.241Z,1002.79
2019-04-26T03:16:03.774Z,1002.78
2019-04-26T03:16:44.343Z,1002.77
2019-04-26T03:17:24.902Z,1002.78
2019-04-26T03:18:05.462Z,1002.76
2019-04-26T03:18:46.004Z,1002.78
2019-04-26T03:19:26.557Z,1002.73
2019-04-26T03:20:07.124Z,1002.76
2019-04-26T03:20:47.691Z,1002.71
2019-04-26T03:21:28.249Z,1002.73
2019-04-26T03:22:08.817Z,1002.71
2019-04-26T03:22:49.372Z,1002.72
2019-04-26T03:23:42.772Z,1002.71
2019-04-26T03:24:10.510Z,1002.73
2019-04-26T03:24:51.060Z,1002.76
2019-04-26T03:25:33.240Z,1002.8
2019-04-26T03:26:12.186Z,1002.78
2019-04-26T03:26:52.773Z,1002.83
2019-04-26T03:27:35.076Z,1002.79
2019-04-26T03:28:13.883Z,1002.77
2019-04-26T03:28:54.459Z,1002.78
2019-04-26T03:29:36.978Z,1002.81
2019-04-26T03:32:40.274Z,1002.79
2019-04-26T03:33:14.542Z,1002.76
2019-04-26T03:33:55.684Z,1002.78
2019-04-26T03:34:40.148Z,1002.75
2019-04-26T03:35:16.657Z,1002.72
2019-04-26T03:35:58.301Z,1002.72
2019-04-26T03:36:40.637Z,1002.75
2019-04-26T03:37:20.574Z,1002.7
2019-04-26T03:37:58.902Z,1002.72
2019-04-26T03:38:40.127Z,1002.7
2019-04-26T03:39:20.018Z,1002.73
2019-04-26T03:40:00.583Z,1002.75
2019-04-26T03:40:42.942Z,1002.73
2019-04-26T03:41:21.720Z,1002.74
2019-04-26T03:42:02.275Z,1002.78
2019-04-26T03:42:44.080Z,1002.77
2019-04-26T03:43:23.387Z,1002.77
2019-04-26T03:44:03.963Z,1002.75
2019-04-26T03:44:44.515Z,1002.77
2019-04-26T03:45:25.067Z,1002.75
2019-04-26T03:46:05.634Z,1002.77
2019-04-26T03:46:46.200Z,1002.79
2019-04-26T03:47:26.763Z,1002.8
2019-04-26T03:48:07.339Z,1002.8
2019-04-26T03:48:47.913Z,1002.77
2019-04-26T03:49:28.501Z,1002.75
2019-04-26T03:50:09.060Z,1002.72
2019-04-26T03:50:49.638Z,1002.73
2019-04-26T03:51:30.191Z,1002.73
2019-04-26T03:52:10.795Z,1002.7
2019-04-26T03:52:51.361Z,1002.75
2019-04-26T03:53:31.942Z,1002.73
2019-04-26T03:54:12.560Z,1002.67
2019-04-26T03:54:53.221Z,1002.68
2019-04-26T03:55:34.326Z,1002.72
2019-04-26T03:56:14.308Z,1002.7
2019-04-26T03:56:54.865Z,1002.68
2019-04-26T03:57:36.823Z,1002.71
2019-04-26T03:58:15.997Z,1002.7
2019-04-26T03:58:56.546Z,1002.73
2019-04-26T03:59:38.805Z,1002.73
2019-04-26T04:00:17.754Z,1002.74
2019-04-26T04:00:58.287Z,1002.73
2019-04-26T04:01:40.497Z,1002.75
2019-04-26T04:02:19.441Z,1002.74
2019-04-26T04:03:00.089Z,1002.74
2019-04-26T04:03:43.138Z,1002.75
2019-04-26T04:04:21.281Z,1002.77
2019-04-26T04:05:01.865Z,1002.77
2019-04-26T04:05:44.092Z,1002.79
2019-04-26T04:06:23.024Z,1002.79
2019-04-26T04:07:04.968Z,1002.84
2019-04-26T04:07:49.301Z,1002.83
2019-04-26T04:08:24.733Z,1002.84
2019-04-26T04:09:05.323Z,1002.78
2019-04-26T04:09:46.775Z,1002.8
2019-04-26T04:10:26.732Z,1002.79
2019-04-26T04:11:07.172Z,1002.82
2019-04-26T04:11:49.097Z,1002.83
2019-04-26T04:12:28.362Z,1002.82
2019-04-26T04:13:08.934Z,1002.8
2019-04-26T04:13:51.269Z,1002.8
2019-04-26T04:14:30.099Z,1002.81
2019-04-26T04:15:10.683Z,1002.78
2019-04-26T04:15:51.231Z,1002.8
2019-04-26T04:16:31.824Z,1002.79
2019-04-26T04:17:12.364Z,1002.79
2019-04-26T04:17:52.925Z,1002.79
2019-04-26T04:18:33.482Z,1002.77
2019-04-26T04:19:14.051Z,1002.73
2019-04-26T04:19:54.730Z,1002.77
2019-04-26T04:20:35.209Z,1002.75
2019-04-26T04:21:15.802Z,1002.74
2019-04-26T04:21:56.369Z,1002.76
2019-04-26T04:22:37.881Z,1002.77
2019-04-26T04:23:17.473Z,1002.77
2019-04-26T04:23:58.126Z,1002.79
2019-04-26T04:24:39.653Z,1002.73
2019-04-26T04:25:19.259Z,1002.79
2019-04-26T04:25:59.823Z,1002.83
2019-04-26T04:26:41.428Z,1002.75
2019-04-26T04:27:20.929Z,1002.79
2019-04-26T04:28:03.377Z,1002.79
2019-04-26T04:28:42.536Z,1002.8
2019-04-26T04:29:38.686Z,1002.83
2019-04-26T04:30:03.202Z,1002.79
2019-04-26T04:30:45.418Z,1002.77
2019-04-26T04:31:24.339Z,1002.74
2019-04-26T04:32:04.882Z,1002.79
2019-04-26T04:32:46.195Z,1002.78
2019-04-26T04:33:26.002Z,1002.78
2019-04-26T04:34:06.575Z,1002.79
2019-04-26T04:34:48.071Z,1002.81
2019-04-26T04:35:27.714Z,1002.77
2019-04-26T04:36:08.253Z,1002.8
2019-04-26T04:36:51.268Z,1002.8
2019-04-26T04:37:29.376Z,1002.8
2019-04-26T04:38:10.130Z,1002.77
2019-04-26T04:38:50.493Z,1002.82
2019-04-26T04:39:31.056Z,1002.82
2019-04-26T04:40:11.623Z,1002.81
2019-04-26T04:40:53.409Z,1002.84
2019-04-26T04:41:32.746Z,1002.8
2019-04-26T04:42:13.301Z,1002.8
2019-04-26T04:42:53.890Z,1002.83
2019-04-26T04:43:34.469Z,1002.83
2019-04-26T04:44:15.026Z,1002.81
2019-04-26T04:44:55.594Z,1002.84
2019-04-26T04:45:36.259Z,1002.84
2019-04-26T04:46:16.865Z,1002.84
2019-04-26T04:46:57.483Z,1002.85
2019-04-26T04:47:38.229Z,1002.85
2019-04-26T04:48:18.744Z,1002.83
2019-04-26T04:48:59.391Z,1002.82
2019-04-26T04:49:41.109Z,1002.82
2019-04-26T04:50:20.810Z,1002.86
2019-04-26T04:51:01.561Z,1002.82
2019-04-26T04:51:42.647Z,1002.81
2019-04-26T04:52:22.677Z,1002.81
2019-04-26T04:53:03.238Z,1002.81
2019-04-26T04:53:45.029Z,1002.85
2019-04-26T04:54:24.350Z,1002.87
2019-04-26T04:55:07.623Z,1002.86
2019-04-26T04:55:46.265Z,1002.9
2019-04-26T04:56:26.070Z,1002.9
2019-04-26T04:57:06.628Z,1002.91
2019-04-26T04:57:48.055Z,1002.91
2019-04-26T04:58:27.756Z,1002.93
2019-04-26T04:59:08.305Z,1002.93
2019-04-26T04:59:48.863Z,1002.95
2019-04-26T05:00:29.411Z,1002.99
2019-04-26T05:01:09.997Z,1002.96
2019-04-26T05:01:50.545Z,1002.93
2019-04-26T05:02:31.147Z,1002.91
2019-04-26T05:03:11.674Z,1002.93
2019-04-26T05:03:53.150Z,1002.88
2019-04-26T05:04:32.943Z,1002.9
2019-04-26T05:05:13.511Z,1002.9
2019-04-26T05:06:06.527Z,1002.93
2019-04-26T05:06:34.632Z,1002.92
2019-04-26T05:07:15.196Z,1002.9
2019-04-26T05:08:05.342Z,1002.88
2019-04-26T05:08:36.334Z,1002.87
2019-04-26T05:09:16.898Z,1002.89
2019-04-26T05:09:57.459Z,1002.87
2019-04-26T05:10:38.018Z,1002.87
2019-04-26T05:11:18.582Z,1002.89
2019-04-26T05:11:59.145Z,1002.88
2019-04-26T05:12:39.713Z,1002.9
2019-04-26T05:13:20.301Z,1002.87
2019-04-26T05:14:00.868Z,1002.89
2019-04-26T05:14:41.438Z,1002.88
2019-04-26T05:15:22.063Z,1002.89
2019-04-26T05:16:02.642Z,1002.84
2019-04-26T05:16:44.932Z,1002.83
2019-04-26T05:17:23.751Z,1002.89
2019-04-26T05:18:04.331Z,1002.86
2019-04-26T05:18:45.527Z,1002.87
2019-04-26T05:19:25.437Z,1002.88
2019-04-26T05:20:06.014Z,1002.85
2019-04-26T05:20:46.980Z,1002.88
2019-04-26T05:21:27.141Z,1002.86
2019-04-26T05:22:07.720Z,1002.82
2019-04-26T05:22:49.070Z,1002.85
2019-04-26T05:23:28.891Z,1002.84
2019-04-26T05:24:09.470Z,1002.89
2019-04-26T05:24:51.169Z,1002.86
2019-04-26T05:25:30.597Z,1002.87
2019-04-26T05:26:11.176Z,1002.87
2019-04-26T05:26:51.801Z,1002.86
2019-04-26T05:27:32.351Z,1002.88
2019-04-26T05:28:12.909Z,1002.85
2019-04-26T05:28:53.783Z,1002.86
2019-04-26T05:29:34.026Z,1002.82
2019-04-26T05:30:14.599Z,1002.85
2019-04-26T05:30:56.123Z,1002.86
2019-04-26T05:31:35.840Z,1002.87
2019-04-26T05:32:17.378Z,1002.82
2019-04-26T05:32:57.929Z,1002.84
2019-04-26T05:33:38.948Z,1002.83
2019-04-26T05:34:19.508Z,1002.84
2019-04-26T05:35:00.068Z,1002.84
2019-04-26T05:35:40.636Z,1002.85
2019-04-26T05:36:21.346Z,1002.82
2019-04-26T05:37:01.918Z,1002.83
2019-04-26T05:37:42.475Z,1002.83
2019-04-26T05:38:23.057Z,1002.83
2019-04-26T05:39:03.585Z,1002.81
2019-04-26T05:39:44.159Z,1002.78
2019-04-26T05:40:24.716Z,1002.78
2019-04-26T05:41:05.272Z,1002.82
2019-04-26T05:41:45.837Z,1002.79
2019-04-26T05:42:26.463Z,1002.8
2019-04-26T05:43:07.018Z,1002.82
2019-04-26T05:43:48.670Z,1002.8
2019-04-26T05:44:28.208Z,1002.84
2019-04-26T05:45:08.792Z,1002.84
2019-04-26T05:45:50.312Z,1002.81
2019-04-26T05:46:30.152Z,1002.85
2019-04-26T05:47:10.725Z,1002.85
2019-04-26T05:48:04.974Z,1002.86
2019-04-26T05:48:31.950Z,1002.85
2019-04-26T05:49:12.508Z,1002.93
2019-04-26T05:49:53.749Z,1002.91
2019-04-26T05:50:33.675Z,1002.9
2019-04-26T05:51:14.341Z,1002.96
2019-04-26T05:51:55.703Z,1002.97
2019-04-26T05:52:35.523Z,1002.97
2019-04-26T05:53:16.080Z,1003.1
2019-04-26T05:53:57.147Z,1003.14
2019-04-26T05:54:37.231Z,1003.17
2019-04-26T05:55:17.838Z,1003.17
2019-04-26T05:55:58.406Z,1003.12
2019-04-26T05:56:38.991Z,1003.08
2019-04-26T05:57:19.631Z,1003.09
2019-04-26T05:58:00.195Z,1003.06
2019-04-26T05:58:40.786Z,1003.01
2019-04-26T05:59:21.347Z,1002.99
2019-04-26T06:00:02.002Z,1003
2019-04-26T06:00:42.574Z,1003.01
2019-04-26T06:01:23.180Z,1003.06
2019-04-26T06:02:03.791Z,1003.08
2019-04-26T06:02:44.402Z,1003.07
2019-04-26T06:03:24.972Z,1003.12
2019-04-26T06:04:05.577Z,1003.09
2019-04-26T06:04:46.203Z,1003.09
2019-04-26T06:05:26.817Z,1003.15
2019-04-26T06:06:07.357Z,1003.09
2019-04-26T06:06:47.919Z,1003.1
2019-04-26T06:07:28.495Z,1003.08
2019-04-26T06:08:09.083Z,1003.11
2019-04-26T06:08:49.647Z,1003.11
2019-04-26T06:09:30.403Z,1003.09
2019-04-26T06:10:10.975Z,1003.11
2019-04-26T06:10:52.667Z,1003.16
2019-04-26T06:11:32.218Z,1003.13
2019-04-26T06:12:12.878Z,1003.12
2019-04-26T06:12:54.475Z,1003.09
2019-04-26T06:13:34.026Z,1003.1
2019-04-26T06:14:14.628Z,1003.1
2019-04-26T06:14:55.168Z,1003.09
2019-04-26T06:15:35.748Z,1003.08
2019-04-26T06:16:16.326Z,1003.12
2019-04-26T06:16:56.965Z,1003.07
2019-04-26T06:17:37.470Z,1003.09
2019-04-26T06:18:18.125Z,1003.07
2019-04-26T06:18:59.681Z,1003.09
2019-04-26T06:19:39.429Z,1003.11
2019-04-26T06:20:22.957Z,1003.08
2019-04-26T06:21:00.635Z,1003.09
2019-04-26T06:21:41.255Z,1003.12
2019-04-26T06:22:21.802Z,1003.13
2019-04-26T06:23:02.400Z,1003.18
2019-04-26T06:23:42.970Z,1003.21
2019-04-26T06:24:23.582Z,1003.19
2019-04-26T06:25:04.146Z,1003.17
2019-04-26T06:25:44.759Z,1003.21
2019-04-26T06:26:25.614Z,1003.2
2019-04-26T06:27:13.107Z,1003.21
2019-04-26T06:27:46.817Z,1003.19
2019-04-26T06:28:27.377Z,1003.18
2019-04-26T06:29:07.940Z,1003.2
2019-04-26T06:29:48.555Z,1003.21
2019-04-26T06:30:29.139Z,1003.17
2019-04-26T06:31:09.789Z,1003.2
2019-04-26T06:31:50.431Z,1003.2
2019-04-26T06:32:31.088Z,1003.18
2019-04-26T06:35:29.895Z,1003.2
2019-04-26T06:36:10.543Z,1003.2
2019-04-26T06:36:51.024Z,1003.16
2019-04-26T06:37:31.580Z,1003.14
2019-04-26T06:38:12.144Z,1003.2
2019-04-26T06:38:54.240Z,1003.14
2019-04-26T06:39:33.321Z,1003.18
2019-04-26T06:40:13.900Z,1003.19
2019-04-26T06:40:55.634Z,1003.18
2019-04-26T06:41:35.222Z,1003.15
2019-04-26T06:42:15.802Z,1003.19
2019-04-26T06:42:56.383Z,1003.14
2019-04-26T06:43:36.932Z,1003.15
2019-04-26T06:44:17.511Z,1003.12
2019-04-26T06:44:58.329Z,1003.13
2019-04-26T06:45:38.645Z,1003.12
2019-04-26T06:46:19.219Z,1003.09
2019-04-26T06:46:59.876Z,1003.05
2019-04-26T06:47:40.411Z,1003.03
2019-04-26T06:48:21.014Z,1003.05
2019-04-26T06:49:01.603Z,1003.09
2019-04-26T06:49:42.177Z,1003.04
2019-04-26T06:50:22.785Z,1003.06
2019-04-26T06:51:03.396Z,1003.01
2019-04-26T06:51:43.992Z,1003.01
2019-04-26T06:52:24.572Z,1002.95
2019-04-26T06:53:06.198Z,1002.96
2019-04-26T06:53:45.749Z,1003.01
2019-04-26T06:54:26.310Z,1003.03
2019-04-26T06:55:06.897Z,1003.02
2019-04-26T06:55:47.529Z,1003
2019-04-26T06:56:28.119Z,1003.03
2019-04-26T06:57:13.494Z,1003.03
2019-04-26T06:57:49.290Z,1002.99
2019-04-26T06:58:29.890Z,1002.99
2019-04-26T06:59:10.467Z,1003
2019-04-26T06:59:51.035Z,1002.97
2019-04-26T07:00:31.627Z,1002.98
2019-04-26T07:01:12.225Z,1002.95
2019-04-26T07:01:52.787Z,1002.88
2019-04-26T07:02:33.381Z,1002.87
2019-04-26T07:03:13.952Z,1002.83
2019-04-26T07:03:54.540Z,1002.84
2019-04-26T07:04:35.104Z,1002.99
2019-04-26T07:05:15.681Z,1002.93
2019-04-26T07:05:56.297Z,1002.89
2019-04-26T07:06:36.880Z,1002.91
2019-04-26T07:07:17.474Z,1002.93
2019-04-26T07:07:58.039Z,1002.8
2019-04-26T07:08:38.641Z,1002.87
2019-04-26T07:09:19.241Z,1002.83
2019-04-26T07:10:00.216Z,1002.82
2019-04-26T07:10:40.450Z,1002.83
2019-04-26T07:11:21.028Z,1002.93
2019-04-26T07:12:02.862Z,1002.82
2019-04-26T07:12:42.234Z,1002.84
2019-04-26T07:13:22.839Z,1002.83
2019-04-26T07:14:03.429Z,1002.77
2019-04-26T07:14:44.007Z,1002.75
2019-04-26T07:15:28.592Z,1002.8
2019-04-26T07:16:17.579Z,1002.75
2019-04-26T07:16:45.817Z,1002.79
2019-04-26T07:17:26.493Z,1002.82
2019-04-26T07:18:07.099Z,1002.79
2019-04-26T07:18:47.656Z,1002.76
2019-04-26T07:19:28.252Z,1002.75
2019-04-26T07:20:08.879Z,1002.79
2019-04-26T07:20:49.561Z,1002.76
2019-04-26T07:21:30.212Z,1002.8
2019-04-26T07:22:10.973Z,1002.84
2019-04-26T07:22:51.375Z,1002.83
2019-04-26T07:23:31.952Z,1002.83
2019-04-26T07:24:13.396Z,1002.8
2019-04-26T07:24:53.184Z,1002.83
2019-04-26T07:25:33.775Z,1002.8
2019-04-26T07:26:14.346Z,1002.77
2019-04-26T07:26:54.994Z,1002.74
2019-04-26T07:27:35.563Z,1002.74
2019-04-26T07:28:16.153Z,1002.74
2019-04-26T07:28:56.669Z,1002.76
2019-04-26T07:29:37.253Z,1002.74
2019-04-26T07:30:17.823Z,1002.75
2019-04-26T07:30:58.400Z,1002.74
2019-04-26T07:31:38.935Z,1002.83
2019-04-26T07:32:19.532Z,1002.89
2019-04-26T07:33:01.311Z,1002.92
2019-04-26T07:33:40.707Z,1002.9
2019-04-26T07:34:21.259Z,1002.93
2019-04-26T07:35:02.703Z,1002.95
2019-04-26T07:35:42.406Z,1002.86
2019-04-26T07:36:22.968Z,1002.94
2019-04-26T07:37:04.555Z,1002.94
2019-04-26T07:37:44.075Z,1003.01
2019-04-26T07:38:24.668Z,1002.96
2019-04-26T07:39:15.276Z,1003
2019-04-26T07:39:45.782Z,1003
2019-04-26T07:40:26.340Z,1002.87
2019-04-26T07:41:07.198Z,1002.94
2019-04-26T07:41:47.568Z,1002.87
2019-04-26T07:42:28.093Z,1002.98
2019-04-26T07:43:08.669Z,1003.01
2019-04-26T07:43:49.257Z,1003.01
2019-04-26T07:44:29.842Z,1003.06
2019-04-26T07:45:10.425Z,1002.99
2019-04-26T07:45:51.029Z,1002.94
2019-04-26T07:46:31.614Z,1002.96
2019-04-26T07:47:14.175Z,1002.86
2019-04-26T07:47:52.714Z,1002.95
2019-04-26T07:48:33.309Z,1002.88
2019-04-26T07:49:13.896Z,1002.87
2019-04-26T07:49:54.485Z,1002.89
2019-04-26T07:50:35.073Z,1002.94
2019-04-26T07:51:15.659Z,1002.84
2019-04-26T07:51:56.234Z,1002.97
2019-04-26T07:52:36.808Z,1002.87
2019-04-26T07:53:17.400Z,1002.87
2019-04-26T07:53:58.013Z,1002.85
2019-04-26T07:54:38.594Z,1002.85
2019-04-26T07:55:19.170Z,1002.86
2019-04-26T07:55:59.773Z,1002.91
2019-04-26T07:56:40.355Z,1002.82
2019-04-26T07:57:20.968Z,1002.85
2019-04-26T07:58:03.528Z,1002.83
2019-04-26T07:58:42.099Z,1002.83
2019-04-26T07:59:22.690Z,1002.85
2019-04-26T08:00:04.227Z,1002.82
2019-04-26T08:00:44.830Z,1002.83
2019-04-26T08:01:24.554Z,1002.85
2019-04-26T08:02:05.183Z,1002.85
2019-04-26T08:02:45.747Z,1002.86
2019-04-26T08:03:26.352Z,1002.85
2019-04-26T08:04:07.286Z,1002.86
2019-04-26T08:04:47.495Z,1002.9
2019-04-26T08:05:28.057Z,1002.86
2019-04-26T08:06:09.595Z,1002.88
2019-04-26T08:06:49.276Z,1002.81
2019-04-26T08:07:29.840Z,1002.82
2019-04-26T08:08:10.808Z,1002.83
2019-04-26T08:08:51.016Z,1002.83
2019-04-26T08:09:31.594Z,1002.86
2019-04-26T08:10:12.370Z,1002.85
2019-04-26T08:10:52.773Z,1002.82
2019-04-26T08:11:33.382Z,1002.84
2019-04-26T08:12:14.186Z,1002.82
2019-04-26T08:12:54.552Z,1002.87
2019-04-26T08:13:35.149Z,1002.84
2019-04-26T08:14:15.779Z,1002.85
2019-04-26T08:14:56.360Z,1002.89
2019-04-26T08:15:36.963Z,1002.84
2019-04-26T08:16:17.589Z,1002.85
2019-04-26T08:16:58.174Z,1002.81
2019-04-26T08:17:38.800Z,1002.81
2019-04-26T08:18:19.419Z,1002.8
2019-04-26T08:19:00.215Z,1002.82
2019-04-26T08:19:40.619Z,1002.81
2019-04-26T08:20:21.329Z,1002.79
2019-04-26T08:21:02.392Z,1002.8
2019-04-26T08:21:47.810Z,1002.79
2019-04-26T08:22:28.374Z,1002.79
2019-04-26T08:23:07.288Z,1002.78
2019-04-26T08:23:44.287Z,1002.78
2019-04-26T08:24:27.744Z,1002.78
2019-04-26T08:25:06.651Z,1002.77